sensor_id;sensor_type;location;lat;lon;timestamp;temperature;humidity
15455;DHT22;21057;51.024;7.540;2023-08-06T00:00:56;16.90;99.90
15455;DHT22;21057;51.024;7.540;2023-08-06T00:03:22;17.00;99.90
15455;DHT22;21057;51.024;7.540;2023-08-06T00:05:49;17.10;99.90
15455;DHT22;21057;51.024;7.540;2023-08-06T00:08:16;17.00;99.90
15455;DHT22;21057;51.024;7.540;2023-08-06T00:10:43;17.00;99.90
15455;DHT22;21057;51.024;7.540;2023-08-06T00:13:10;17.10;99.90
15455;DHT22;21057;51.024;7.540;2023-08-06T00:15:36;17.00;99.90
15455;DHT22;21057;51.024;7.540;2023-08-06T00:18:04;16.90;99.90
15455;DHT22;21057;51.024;7.540;2023-08-06T00:20:31;17.00;99.90
15455;DHT22;21057;51.024;7.540;2023-08-06T00:22:58;16.90;99.90
15455;DHT22;21057;51.024;7.540;2023-08-06T00:25:25;16.90;99.90
15455;DHT22;21057;51.024;7.540;2023-08-06T00:27:52;16.90;99.90
15455;DHT22;21057;51.024;7.540;2023-08-06T00:30:18;16.70;99.90
15455;DHT22;21057;51.024;7.540;2023-08-06T00:32:45;16.60;99.90
15455;DHT22;21057;51.024;7.540;2023-08-06T00:35:14;16.60;99.90
15455;DHT22;21057;51.024;7.540;2023-08-06T00:37:41;16.60;99.90
15455;DHT22;21057;51.024;7.540;2023-08-06T00:40:08;16.40;99.90
15455;DHT22;21057;51.024;7.540;2023-08-06T00:42:35;16.30;99.90
15455;DHT22;21057;51.024;7.540;2023-08-06T00:45:02;16.50;99.90
15455;DHT22;21057;51.024;7.540;2023-08-06T00:47:29;16.40;99.90
15455;DHT22;21057;51.024;7.540;2023-08-06T00:49:56;16.30;99.90
15455;DHT22;21057;51.024;7.540;2023-08-06T00:52:25;16.40;99.90
15455;DHT22;21057;51.024;7.540;2023-08-06T00:54:52;16.40;99.90
15455;DHT22;21057;51.024;7.540;2023-08-06T00:57:20;16.40;99.90
15455;DHT22;21057;51.024;7.540;2023-08-06T00:59:48;16.40;99.90
15455;DHT22;21057;51.024;7.540;2023-08-06T01:02:15;16.40;99.90
15455;DHT22;21057;51.024;7.540;2023-08-06T01:04:42;16.40;99.90
15455;DHT22;21057;51.024;7.540;2023-08-06T01:07:19;16.40;99.90
15455;DHT22;21057;51.024;7.540;2023-08-06T01:09:53;16.60;99.90
15455;DHT22;21057;51.024;7.540;2023-08-06T01:12:30;16.60;99.90
15455;DHT22;21057;51.024;7.540;2023-08-06T01:15:04;16.60;99.90
15455;DHT22;21057;51.024;7.540;2023-08-06T01:17:34;16.60;99.90
15455;DHT22;21057;51.024;7.540;2023-08-06T01:20:01;16.60;99.90
15455;DHT22;21057;51.024;7.540;2023-08-06T01:22:30;16.60;99.90
15455;DHT22;21057;51.024;7.540;2023-08-06T01:24:57;16.60;99.90
15455;DHT22;21057;51.024;7.540;2023-08-06T01:27:28;16.70;99.90
15455;DHT22;21057;51.024;7.540;2023-08-06T01:30:02;16.60;99.90
15455;DHT22;21057;51.024;7.540;2023-08-06T01:32:32;16.70;99.90
15455;DHT22;21057;51.024;7.540;2023-08-06T01:35:00;16.70;99.90
15455;DHT22;21057;51.024;7.540;2023-08-06T01:37:30;16.60;99.90
15455;DHT22;21057;51.024;7.540;2023-08-06T01:39:57;16.70;99.90
15455;DHT22;21057;51.024;7.540;2023-08-06T01:42:24;16.50;99.90
15455;DHT22;21057;51.024;7.540;2023-08-06T01:44:51;16.60;99.90
15455;DHT22;21057;51.024;7.540;2023-08-06T01:47:18;16.60;99.90
15455;DHT22;21057;51.024;7.540;2023-08-06T01:49:45;16.60;99.90
15455;DHT22;21057;51.024;7.540;2023-08-06T01:52:11;16.70;99.90
15455;DHT22;21057;51.024;7.540;2023-08-06T01:54:40;16.60;99.90
15455;DHT22;21057;51.024;7.540;2023-08-06T01:57:06;16.60;99.90
15455;DHT22;21057;51.024;7.540;2023-08-06T01:59:33;16.50;99.90
15455;DHT22;21057;51.024;7.540;2023-08-06T02:02:00;16.50;99.90
15455;DHT22;21057;51.024;7.540;2023-08-06T02:04:27;16.60;99.90
15455;DHT22;21057;51.024;7.540;2023-08-06T02:06:54;16.60;99.90
15455;DHT22;21057;51.024;7.540;2023-08-06T02:09:20;16.60;99.90
15455;DHT22;21057;51.024;7.540;2023-08-06T02:11:49;16.50;99.90
15455;DHT22;21057;51.024;7.540;2023-08-06T02:14:15;16.50;99.90
15455;DHT22;21057;51.024;7.540;2023-08-06T02:16:42;16.50;99.90
15455;DHT22;21057;51.024;7.540;2023-08-06T02:19:09;16.60;99.90
15455;DHT22;21057;51.024;7.540;2023-08-06T02:21:36;16.70;99.90
15455;DHT22;21057;51.024;7.540;2023-08-06T02:24:03;16.70;99.90
15455;DHT22;21057;51.024;7.540;2023-08-06T02:26:30;16.80;99.90
15455;DHT22;21057;51.024;7.540;2023-08-06T02:28:58;16.90;99.90
15455;DHT22;21057;51.024;7.540;2023-08-06T02:31:25;16.70;99.90
15455;DHT22;21057;51.024;7.540;2023-08-06T02:33:52;16.60;99.90
15455;DHT22;21057;51.024;7.540;2023-08-06T02:36:19;16.70;99.90
15455;DHT22;21057;51.024;7.540;2023-08-06T02:38:46;16.60;99.90
15455;DHT22;21057;51.024;7.540;2023-08-06T02:41:13;16.60;99.90
15455;DHT22;21057;51.024;7.540;2023-08-06T02:43:40;16.70;99.90
15455;DHT22;21057;51.024;7.540;2023-08-06T02:46:08;16.80;99.90
15455;DHT22;21057;51.024;7.540;2023-08-06T02:48:35;16.60;99.90
15455;DHT22;21057;51.024;7.540;2023-08-06T02:51:02;16.60;99.90
15455;DHT22;21057;51.024;7.540;2023-08-06T02:53:29;16.80;99.90
15455;DHT22;21057;51.024;7.540;2023-08-06T02:55:57;16.70;99.90
15455;DHT22;21057;51.024;7.540;2023-08-06T02:58:24;16.60;99.90
15455;DHT22;21057;51.024;7.540;2023-08-06T03:01:01;16.60;99.90
15455;DHT22;21057;51.024;7.540;2023-08-06T03:03:30;16.70;99.90
15455;DHT22;21057;51.024;7.540;2023-08-06T03:05:57;16.60;99.90
15455;DHT22;21057;51.024;7.540;2023-08-06T03:08:24;16.60;99.90
15455;DHT22;21057;51.024;7.540;2023-08-06T03:10:51;16.70;99.90
15455;DHT22;21057;51.024;7.540;2023-08-06T03:13:18;16.80;99.90
15455;DHT22;21057;51.024;7.540;2023-08-06T03:15:52;16.70;99.90
15455;DHT22;21057;51.024;7.540;2023-08-06T03:18:19;16.70;99.90
15455;DHT22;21057;51.024;7.540;2023-08-06T03:20:47;16.60;99.90
15455;DHT22;21057;51.024;7.540;2023-08-06T03:23:14;16.60;99.90
15455;DHT22;21057;51.024;7.540;2023-08-06T03:25:41;16.50;99.90
15455;DHT22;21057;51.024;7.540;2023-08-06T03:28:08;16.40;99.90
15455;DHT22;21057;51.024;7.540;2023-08-06T03:30:35;16.40;99.90
15455;DHT22;21057;51.024;7.540;2023-08-06T03:33:02;16.40;99.90
15455;DHT22;21057;51.024;7.540;2023-08-06T03:35:29;16.40;99.90
15455;DHT22;21057;51.024;7.540;2023-08-06T03:37:57;16.40;99.90
15455;DHT22;21057;51.024;7.540;2023-08-06T03:40:24;16.50;99.90
15455;DHT22;21057;51.024;7.540;2023-08-06T03:42:51;16.40;99.90
15455;DHT22;21057;51.024;7.540;2023-08-06T03:45:17;16.50;99.90
15455;DHT22;21057;51.024;7.540;2023-08-06T03:47:44;16.50;99.90
15455;DHT22;21057;51.024;7.540;2023-08-06T03:50:11;16.50;99.90
15455;DHT22;21057;51.024;7.540;2023-08-06T03:52:38;16.60;99.90
15455;DHT22;21057;51.024;7.540;2023-08-06T03:55:06;16.60;99.90
15455;DHT22;21057;51.024;7.540;2023-08-06T03:57:33;16.60;99.90
15455;DHT22;21057;51.024;7.540;2023-08-06T04:00:00;16.50;99.90
15455;DHT22;21057;51.024;7.540;2023-08-06T04:02:27;16.60;99.90
15455;DHT22;21057;51.024;7.540;2023-08-06T04:04:53;16.60;99.90
15455;DHT22;21057;51.024;7.540;2023-08-06T04:07:20;16.50;99.90
15455;DHT22;21057;51.024;7.540;2023-08-06T04:09:54;16.50;99.90
15455;DHT22;21057;51.024;7.540;2023-08-06T04:12:23;16.50;99.90
15455;DHT22;21057;51.024;7.540;2023-08-06T04:14:50;16.40;99.90
15455;DHT22;21057;51.024;7.540;2023-08-06T04:17:18;16.40;99.90
15455;DHT22;21057;51.024;7.540;2023-08-06T04:19:46;16.40;99.90
15455;DHT22;21057;51.024;7.540;2023-08-06T04:22:14;16.60;99.90
15455;DHT22;21057;51.024;7.540;2023-08-06T04:24:41;16.60;99.90
15455;DHT22;21057;51.024;7.540;2023-08-06T04:27:09;16.70;99.90
15455;DHT22;21057;51.024;7.540;2023-08-06T04:29:37;16.70;99.90
15455;DHT22;21057;51.024;7.540;2023-08-06T04:32:06;16.60;99.90
15455;DHT22;21057;51.024;7.540;2023-08-06T04:34:33;16.50;99.90
15455;DHT22;21057;51.024;7.540;2023-08-06T04:37:00;16.60;99.90
15455;DHT22;21057;51.024;7.540;2023-08-06T04:39:27;16.70;99.90
15455;DHT22;21057;51.024;7.540;2023-08-06T04:41:55;16.60;99.90
15455;DHT22;21057;51.024;7.540;2023-08-06T04:44:22;16.70;99.90
15455;DHT22;21057;51.024;7.540;2023-08-06T04:46:50;16.70;99.90
15455;DHT22;21057;51.024;7.540;2023-08-06T04:49:17;16.70;99.90
15455;DHT22;21057;51.024;7.540;2023-08-06T04:51:44;16.70;99.90
15455;DHT22;21057;51.024;7.540;2023-08-06T04:54:11;16.60;99.90
15455;DHT22;21057;51.024;7.540;2023-08-06T04:56:38;16.60;99.90
15455;DHT22;21057;51.024;7.540;2023-08-06T04:59:05;16.60;99.90
15455;DHT22;21057;51.024;7.540;2023-08-06T05:01:32;16.60;99.90
15455;DHT22;21057;51.024;7.540;2023-08-06T05:04:00;16.60;99.90
15455;DHT22;21057;51.024;7.540;2023-08-06T05:06:27;16.70;99.90
15455;DHT22;21057;51.024;7.540;2023-08-06T05:08:53;16.70;99.90
15455;DHT22;21057;51.024;7.540;2023-08-06T05:11:20;16.80;99.90
15455;DHT22;21057;51.024;7.540;2023-08-06T05:13:47;16.80;99.90
15455;DHT22;21057;51.024;7.540;2023-08-06T05:16:14;16.80;99.90
15455;DHT22;21057;51.024;7.540;2023-08-06T05:18:41;16.90;99.90
15455;DHT22;21057;51.024;7.540;2023-08-06T05:21:09;16.80;99.90
15455;DHT22;21057;51.024;7.540;2023-08-06T05:23:36;16.70;99.90
15455;DHT22;21057;51.024;7.540;2023-08-06T05:26:03;16.80;99.90
15455;DHT22;21057;51.024;7.540;2023-08-06T05:28:29;16.80;99.90
15455;DHT22;21057;51.024;7.540;2023-08-06T05:30:56;16.80;99.90
15455;DHT22;21057;51.024;7.540;2023-08-06T05:33:23;16.80;99.90
15455;DHT22;21057;51.024;7.540;2023-08-06T05:35:50;16.70;99.90
15455;DHT22;21057;51.024;7.540;2023-08-06T05:38:18;16.70;99.90
15455;DHT22;21057;51.024;7.540;2023-08-06T05:40:45;16.70;99.90
15455;DHT22;21057;51.024;7.540;2023-08-06T05:43:11;16.70;99.90
15455;DHT22;21057;51.024;7.540;2023-08-06T05:45:38;16.70;99.90
15455;DHT22;21057;51.024;7.540;2023-08-06T05:48:05;16.60;99.90
15455;DHT22;21057;51.024;7.540;2023-08-06T05:50:32;16.70;99.90
15455;DHT22;21057;51.024;7.540;2023-08-06T05:52:59;16.70;99.90
15455;DHT22;21057;51.024;7.540;2023-08-06T05:55:27;16.70;99.90
15455;DHT22;21057;51.024;7.540;2023-08-06T05:57:54;16.80;99.90
15455;DHT22;21057;51.024;7.540;2023-08-06T06:00:21;16.80;99.90
15455;DHT22;21057;51.024;7.540;2023-08-06T06:02:48;16.80;99.90
15455;DHT22;21057;51.024;7.540;2023-08-06T06:05:15;16.90;99.90
15455;DHT22;21057;51.024;7.540;2023-08-06T06:07:42;16.80;99.90
15455;DHT22;21057;51.024;7.540;2023-08-06T06:10:09;16.80;99.90
15455;DHT22;21057;51.024;7.540;2023-08-06T06:12:40;16.80;99.90
15455;DHT22;21057;51.024;7.540;2023-08-06T06:15:07;16.80;99.90
15455;DHT22;21057;51.024;7.540;2023-08-06T06:17:34;16.80;99.90
15455;DHT22;21057;51.024;7.540;2023-08-06T06:20:01;16.80;99.90
15455;DHT22;21057;51.024;7.540;2023-08-06T06:22:29;16.80;99.90
15455;DHT22;21057;51.024;7.540;2023-08-06T06:24:56;16.70;99.90
15455;DHT22;21057;51.024;7.540;2023-08-06T06:27:23;16.80;99.90
15455;DHT22;21057;51.024;7.540;2023-08-06T06:29:51;16.70;99.90
15455;DHT22;21057;51.024;7.540;2023-08-06T06:32:20;16.80;99.90
15455;DHT22;21057;51.024;7.540;2023-08-06T06:34:47;16.70;99.90
15455;DHT22;21057;51.024;7.540;2023-08-06T06:37:13;16.70;99.90
15455;DHT22;21057;51.024;7.540;2023-08-06T06:39:40;16.80;99.90
15455;DHT22;21057;51.024;7.540;2023-08-06T06:42:07;16.70;99.90
15455;DHT22;21057;51.024;7.540;2023-08-06T06:44:34;16.70;99.90
15455;DHT22;21057;51.024;7.540;2023-08-06T06:47:02;16.80;99.90
15455;DHT22;21057;51.024;7.540;2023-08-06T06:49:29;17.00;99.90
15455;DHT22;21057;51.024;7.540;2023-08-06T06:51:56;17.10;99.90
15455;DHT22;21057;51.024;7.540;2023-08-06T06:54:23;17.20;99.90
15455;DHT22;21057;51.024;7.540;2023-08-06T06:56:50;17.30;99.90
15455;DHT22;21057;51.024;7.540;2023-08-06T06:59:16;17.30;99.90
15455;DHT22;21057;51.024;7.540;2023-08-06T07:01:43;17.30;99.90
15455;DHT22;21057;51.024;7.540;2023-08-06T07:04:11;17.30;99.90
15455;DHT22;21057;51.024;7.540;2023-08-06T07:06:38;17.30;99.90
15455;DHT22;21057;51.024;7.540;2023-08-06T07:09:05;17.30;99.90
15455;DHT22;21057;51.024;7.540;2023-08-06T07:11:32;17.30;99.90
15455;DHT22;21057;51.024;7.540;2023-08-06T07:13:59;17.40;99.90
15455;DHT22;21057;51.024;7.540;2023-08-06T07:16:26;17.30;99.90
15455;DHT22;21057;51.024;7.540;2023-08-06T07:18:53;17.40;99.90
15455;DHT22;21057;51.024;7.540;2023-08-06T07:21:22;17.30;99.90
15455;DHT22;21057;51.024;7.540;2023-08-06T07:23:49;17.40;99.90
15455;DHT22;21057;51.024;7.540;2023-08-06T07:26:16;17.50;99.90
15455;DHT22;21057;51.024;7.540;2023-08-06T07:28:43;17.40;99.90
15455;DHT22;21057;51.024;7.540;2023-08-06T07:31:10;17.40;99.90
15455;DHT22;21057;51.024;7.540;2023-08-06T07:33:37;17.40;99.90
15455;DHT22;21057;51.024;7.540;2023-08-06T07:36:11;17.60;99.90
15455;DHT22;21057;51.024;7.540;2023-08-06T07:38:40;17.70;99.90
15455;DHT22;21057;51.024;7.540;2023-08-06T07:41:07;17.60;99.90
15455;DHT22;21057;51.024;7.540;2023-08-06T07:43:34;17.80;99.90
15455;DHT22;21057;51.024;7.540;2023-08-06T07:46:02;17.90;99.90
15455;DHT22;21057;51.024;7.540;2023-08-06T07:48:29;17.80;99.90
15455;DHT22;21057;51.024;7.540;2023-08-06T07:50:56;17.60;99.90
15455;DHT22;21057;51.024;7.540;2023-08-06T07:53:24;17.60;99.90
15455;DHT22;21057;51.024;7.540;2023-08-06T07:55:54;17.60;99.90
15455;DHT22;21057;51.024;7.540;2023-08-06T07:58:21;17.60;99.90
15455;DHT22;21057;51.024;7.540;2023-08-06T08:00:48;17.50;99.90
15455;DHT22;21057;51.024;7.540;2023-08-06T08:03:15;17.60;99.90
15455;DHT22;21057;51.024;7.540;2023-08-06T08:05:43;17.50;99.90
15455;DHT22;21057;51.024;7.540;2023-08-06T08:08:10;17.70;99.90
15455;DHT22;21057;51.024;7.540;2023-08-06T08:10:37;17.80;99.90
15455;DHT22;21057;51.024;7.540;2023-08-06T08:13:06;17.80;99.90
15455;DHT22;21057;51.024;7.540;2023-08-06T08:15:34;18.10;99.90
15455;DHT22;21057;51.024;7.540;2023-08-06T08:18:01;18.10;99.90
15455;DHT22;21057;51.024;7.540;2023-08-06T08:20:27;18.20;99.90
15455;DHT22;21057;51.024;7.540;2023-08-06T08:22:59;18.10;99.90
15455;DHT22;21057;51.024;7.540;2023-08-06T08:25:26;18.30;99.90
15455;DHT22;21057;51.024;7.540;2023-08-06T08:27:53;18.40;99.90
15455;DHT22;21057;51.024;7.540;2023-08-06T08:30:22;18.50;99.90
15455;DHT22;21057;51.024;7.540;2023-08-06T08:32:50;18.50;99.90
15455;DHT22;21057;51.024;7.540;2023-08-06T08:35:17;18.60;99.90
15455;DHT22;21057;51.024;7.540;2023-08-06T08:37:45;18.40;99.90
15455;DHT22;21057;51.024;7.540;2023-08-06T08:40:13;18.50;99.90
15455;DHT22;21057;51.024;7.540;2023-08-06T08:42:40;18.40;99.90
15455;DHT22;21057;51.024;7.540;2023-08-06T08:45:11;18.30;99.90
15455;DHT22;21057;51.024;7.540;2023-08-06T08:47:40;18.30;99.90
15455;DHT22;21057;51.024;7.540;2023-08-06T08:50:10;18.40;99.90
15455;DHT22;21057;51.024;7.540;2023-08-06T08:52:39;18.60;99.90
15455;DHT22;21057;51.024;7.540;2023-08-06T08:55:07;18.70;99.90
15455;DHT22;21057;51.024;7.540;2023-08-06T08:57:34;18.60;99.90
15455;DHT22;21057;51.024;7.540;2023-08-06T09:00:01;18.70;99.90
15455;DHT22;21057;51.024;7.540;2023-08-06T09:02:29;18.60;99.90
15455;DHT22;21057;51.024;7.540;2023-08-06T09:05:00;18.70;99.90
15455;DHT22;21057;51.024;7.540;2023-08-06T09:07:33;18.30;99.90
15455;DHT22;21057;51.024;7.540;2023-08-06T09:10:03;18.20;99.90
15455;DHT22;21057;51.024;7.540;2023-08-06T09:12:30;18.00;99.90
15455;DHT22;21057;51.024;7.540;2023-08-06T09:14:57;17.80;99.90
15455;DHT22;21057;51.024;7.540;2023-08-06T09:17:24;17.70;99.90
15455;DHT22;21057;51.024;7.540;2023-08-06T09:19:51;17.80;99.90
15455;DHT22;21057;51.024;7.540;2023-08-06T09:22:19;18.00;99.90
15455;DHT22;21057;51.024;7.540;2023-08-06T09:24:46;18.20;99.90
15455;DHT22;21057;51.024;7.540;2023-08-06T09:27:14;18.50;99.90
15455;DHT22;21057;51.024;7.540;2023-08-06T09:29:42;18.90;99.90
15455;DHT22;21057;51.024;7.540;2023-08-06T09:32:10;18.90;99.90
15455;DHT22;21057;51.024;7.540;2023-08-06T09:34:39;18.90;99.90
15455;DHT22;21057;51.024;7.540;2023-08-06T09:37:06;18.50;99.90
15455;DHT22;21057;51.024;7.540;2023-08-06T09:39:39;18.50;99.90
15455;DHT22;21057;51.024;7.540;2023-08-06T09:42:06;18.40;99.90
15455;DHT22;21057;51.024;7.540;2023-08-06T09:44:33;18.30;99.90
15455;DHT22;21057;51.024;7.540;2023-08-06T09:47:02;18.30;99.90
15455;DHT22;21057;51.024;7.540;2023-08-06T09:49:40;18.30;99.90
15455;DHT22;21057;51.024;7.540;2023-08-06T09:52:10;18.50;99.90
15455;DHT22;21057;51.024;7.540;2023-08-06T09:54:39;18.50;99.90
15455;DHT22;21057;51.024;7.540;2023-08-06T09:57:06;18.60;99.90
15455;DHT22;21057;51.024;7.540;2023-08-06T09:59:33;18.70;99.90
15455;DHT22;21057;51.024;7.540;2023-08-06T10:02:01;18.70;99.90
15455;DHT22;21057;51.024;7.540;2023-08-06T10:04:29;18.70;99.90
15455;DHT22;21057;51.024;7.540;2023-08-06T10:06:56;18.60;99.90
15455;DHT22;21057;51.024;7.540;2023-08-06T10:09:24;18.50;99.90
15455;DHT22;21057;51.024;7.540;2023-08-06T10:11:52;18.40;99.90
15455;DHT22;21057;51.024;7.540;2023-08-06T10:14:23;18.60;99.90
15455;DHT22;21057;51.024;7.540;2023-08-06T10:16:51;18.80;99.90
15455;DHT22;21057;51.024;7.540;2023-08-06T10:19:19;19.00;99.90
15455;DHT22;21057;51.024;7.540;2023-08-06T10:22:10;19.40;99.90
15455;DHT22;21057;51.024;7.540;2023-08-06T10:24:53;19.30;99.90
15455;DHT22;21057;51.024;7.540;2023-08-06T10:27:27;18.80;99.90
15455;DHT22;21057;51.024;7.540;2023-08-06T10:29:54;18.60;99.90
15455;DHT22;21057;51.024;7.540;2023-08-06T10:32:21;18.70;99.90
15455;DHT22;21057;51.024;7.540;2023-08-06T10:34:56;18.90;99.90
15455;DHT22;21057;51.024;7.540;2023-08-06T10:37:23;19.00;99.90
15455;DHT22;21057;51.024;7.540;2023-08-06T10:39:51;19.00;99.90
15455;DHT22;21057;51.024;7.540;2023-08-06T10:42:27;19.00;99.90
15455;DHT22;21057;51.024;7.540;2023-08-06T10:45:12;18.90;99.90
15455;DHT22;21057;51.024;7.540;2023-08-06T10:47:40;18.70;99.90
15455;DHT22;21057;51.024;7.540;2023-08-06T10:50:10;18.70;99.90
15455;DHT22;21057;51.024;7.540;2023-08-06T10:52:37;18.50;99.90
15455;DHT22;21057;51.024;7.540;2023-08-06T10:55:05;18.40;99.90
15455;DHT22;21057;51.024;7.540;2023-08-06T10:57:33;18.50;99.90
15455;DHT22;21057;51.024;7.540;2023-08-06T11:00:00;18.70;99.90
15455;DHT22;21057;51.024;7.540;2023-08-06T11:02:28;18.70;99.90
15455;DHT22;21057;51.024;7.540;2023-08-06T11:04:55;19.00;99.90
15455;DHT22;21057;51.024;7.540;2023-08-06T11:07:21;19.00;99.90
15455;DHT22;21057;51.024;7.540;2023-08-06T11:09:50;19.40;99.90
15455;DHT22;21057;51.024;7.540;2023-08-06T11:12:18;19.30;99.90
15455;DHT22;21057;51.024;7.540;2023-08-06T11:14:51;19.50;99.90
15455;DHT22;21057;51.024;7.540;2023-08-06T11:17:17;19.60;99.90
15455;DHT22;21057;51.024;7.540;2023-08-06T11:19:45;19.70;99.90
15455;DHT22;21057;51.024;7.540;2023-08-06T11:22:11;19.30;99.90
15455;DHT22;21057;51.024;7.540;2023-08-06T11:24:38;19.30;99.90
15455;DHT22;21057;51.024;7.540;2023-08-06T11:27:11;19.20;99.90
15455;DHT22;21057;51.024;7.540;2023-08-06T11:29:38;18.60;99.90
15455;DHT22;21057;51.024;7.540;2023-08-06T11:32:07;18.00;99.90
15455;DHT22;21057;51.024;7.540;2023-08-06T11:34:34;17.50;99.90
15455;DHT22;21057;51.024;7.540;2023-08-06T11:37:02;17.60;99.90
15455;DHT22;21057;51.024;7.540;2023-08-06T11:39:31;17.30;99.90
15455;DHT22;21057;51.024;7.540;2023-08-06T11:41:57;16.90;99.90
15455;DHT22;21057;51.024;7.540;2023-08-06T11:44:26;16.50;99.90
15455;DHT22;21057;51.024;7.540;2023-08-06T11:46:53;16.20;99.90
15455;DHT22;21057;51.024;7.540;2023-08-06T11:49:38;16.00;99.90
15455;DHT22;21057;51.024;7.540;2023-08-06T11:52:12;16.20;99.90
15455;DHT22;21057;51.024;7.540;2023-08-06T11:54:39;16.20;99.90
15455;DHT22;21057;51.024;7.540;2023-08-06T11:57:06;15.90;99.90
15455;DHT22;21057;51.024;7.540;2023-08-06T11:59:33;15.80;99.90
15455;DHT22;21057;51.024;7.540;2023-08-06T12:02:01;15.60;99.90
15455;DHT22;21057;51.024;7.540;2023-08-06T12:04:29;15.20;99.90
15455;DHT22;21057;51.024;7.540;2023-08-06T12:07:04;15.30;99.90
15455;DHT22;21057;51.024;7.540;2023-08-06T12:09:33;15.40;99.90
15455;DHT22;21057;51.024;7.540;2023-08-06T12:12:01;15.40;99.90
15455;DHT22;21057;51.024;7.540;2023-08-06T12:14:28;15.40;99.90
15455;DHT22;21057;51.024;7.540;2023-08-06T12:16:55;15.30;99.90
15455;DHT22;21057;51.024;7.540;2023-08-06T12:19:22;15.30;99.90
15455;DHT22;21057;51.024;7.540;2023-08-06T12:21:50;15.40;99.90
15455;DHT22;21057;51.024;7.540;2023-08-06T12:24:17;15.40;99.90
15455;DHT22;21057;51.024;7.540;2023-08-06T12:26:44;15.40;99.90
15455;DHT22;21057;51.024;7.540;2023-08-06T12:29:10;15.40;99.90
15455;DHT22;21057;51.024;7.540;2023-08-06T12:31:37;15.20;99.90
15455;DHT22;21057;51.024;7.540;2023-08-06T12:34:04;15.30;99.90
15455;DHT22;21057;51.024;7.540;2023-08-06T12:36:31;15.40;99.90
15455;DHT22;21057;51.024;7.540;2023-08-06T12:38:59;15.30;99.90
15455;DHT22;21057;51.024;7.540;2023-08-06T12:41:26;15.30;99.90
15455;DHT22;21057;51.024;7.540;2023-08-06T12:43:53;15.30;99.90
15455;DHT22;21057;51.024;7.540;2023-08-06T12:46:19;15.40;99.90
15455;DHT22;21057;51.024;7.540;2023-08-06T12:48:46;15.20;99.90
15455;DHT22;21057;51.024;7.540;2023-08-06T12:51:14;15.20;99.90
15455;DHT22;21057;51.024;7.540;2023-08-06T12:53:41;15.40;99.90
15455;DHT22;21057;51.024;7.540;2023-08-06T12:56:09;15.20;99.90
15455;DHT22;21057;51.024;7.540;2023-08-06T12:58:35;15.00;99.90
15455;DHT22;21057;51.024;7.540;2023-08-06T13:01:02;14.90;99.90
15455;DHT22;21057;51.024;7.540;2023-08-06T13:03:29;15.30;99.90
15455;DHT22;21057;51.024;7.540;2023-08-06T13:05:56;15.40;99.90
15455;DHT22;21057;51.024;7.540;2023-08-06T13:08:24;15.40;99.90
15455;DHT22;21057;51.024;7.540;2023-08-06T13:10:50;15.40;99.90
15455;DHT22;21057;51.024;7.540;2023-08-06T13:13:19;15.40;99.90
15455;DHT22;21057;51.024;7.540;2023-08-06T13:15:46;15.30;99.90
15455;DHT22;21057;51.024;7.540;2023-08-06T13:18:12;15.20;99.90
15455;DHT22;21057;51.024;7.540;2023-08-06T13:20:39;15.30;99.90
15455;DHT22;21057;51.024;7.540;2023-08-06T13:23:06;15.50;99.90
15455;DHT22;21057;51.024;7.540;2023-08-06T13:25:33;15.30;99.90
15455;DHT22;21057;51.024;7.540;2023-08-06T13:28:02;15.30;99.90
15455;DHT22;21057;51.024;7.540;2023-08-06T13:30:31;15.20;99.90
15455;DHT22;21057;51.024;7.540;2023-08-06T13:32:58;15.30;99.90
15455;DHT22;21057;51.024;7.540;2023-08-06T13:35:25;15.20;99.90
15455;DHT22;21057;51.024;7.540;2023-08-06T13:37:51;15.50;99.90
15455;DHT22;21057;51.024;7.540;2023-08-06T13:40:19;15.60;99.90
15455;DHT22;21057;51.024;7.540;2023-08-06T13:42:46;15.40;99.90
15455;DHT22;21057;51.024;7.540;2023-08-06T13:45:13;15.50;99.90
15455;DHT22;21057;51.024;7.540;2023-08-06T13:47:41;15.70;99.90
15455;DHT22;21057;51.024;7.540;2023-08-06T13:50:08;15.50;99.90
15455;DHT22;21057;51.024;7.540;2023-08-06T13:52:35;15.30;99.90
15455;DHT22;21057;51.024;7.540;2023-08-06T13:55:02;15.50;99.90
15455;DHT22;21057;51.024;7.540;2023-08-06T13:57:30;15.50;99.90
15455;DHT22;21057;51.024;7.540;2023-08-06T13:59:57;15.30;99.90
15455;DHT22;21057;51.024;7.540;2023-08-06T14:02:24;15.30;99.90
15455;DHT22;21057;51.024;7.540;2023-08-06T14:04:53;15.30;99.90
15455;DHT22;21057;51.024;7.540;2023-08-06T14:07:20;15.10;99.90
15455;DHT22;21057;51.024;7.540;2023-08-06T14:09:47;15.00;99.90
15455;DHT22;21057;51.024;7.540;2023-08-06T14:12:14;15.20;99.90
15455;DHT22;21057;51.024;7.540;2023-08-06T14:14:41;15.00;99.90
15455;DHT22;21057;51.024;7.540;2023-08-06T14:17:08;15.10;99.90
15455;DHT22;21057;51.024;7.540;2023-08-06T14:19:35;15.20;99.90
15455;DHT22;21057;51.024;7.540;2023-08-06T14:22:03;15.20;99.90
15455;DHT22;21057;51.024;7.540;2023-08-06T14:24:30;14.90;99.90
15455;DHT22;21057;51.024;7.540;2023-08-06T14:26:57;15.00;99.90
15455;DHT22;21057;51.024;7.540;2023-08-06T14:29:24;15.00;99.90
15455;DHT22;21057;51.024;7.540;2023-08-06T14:31:51;15.00;99.90
15455;DHT22;21057;51.024;7.540;2023-08-06T14:34:18;15.10;99.90
15455;DHT22;21057;51.024;7.540;2023-08-06T14:36:44;15.20;99.90
15455;DHT22;21057;51.024;7.540;2023-08-06T14:39:13;15.30;99.90
15455;DHT22;21057;51.024;7.540;2023-08-06T14:41:39;15.30;99.90
15455;DHT22;21057;51.024;7.540;2023-08-06T14:44:06;15.30;99.90
15455;DHT22;21057;51.024;7.540;2023-08-06T14:46:33;15.40;99.90
15455;DHT22;21057;51.024;7.540;2023-08-06T14:49:00;15.30;99.90
15455;DHT22;21057;51.024;7.540;2023-08-06T14:51:27;15.10;99.90
15455;DHT22;21057;51.024;7.540;2023-08-06T14:53:54;14.90;99.90
15455;DHT22;21057;51.024;7.540;2023-08-06T14:56:22;15.10;99.90
15455;DHT22;21057;51.024;7.540;2023-08-06T14:58:49;15.10;99.90
15455;DHT22;21057;51.024;7.540;2023-08-06T15:01:16;15.20;99.90
15455;DHT22;21057;51.024;7.540;2023-08-06T15:03:43;15.30;99.90
15455;DHT22;21057;51.024;7.540;2023-08-06T15:06:10;15.40;99.90
15455;DHT22;21057;51.024;7.540;2023-08-06T15:08:37;15.60;99.90
15455;DHT22;21057;51.024;7.540;2023-08-06T15:11:03;15.70;99.90
15455;DHT22;21057;51.024;7.540;2023-08-06T15:13:32;15.50;99.90
15455;DHT22;21057;51.024;7.540;2023-08-06T15:15:58;15.30;99.90
15455;DHT22;21057;51.024;7.540;2023-08-06T15:18:25;15.10;99.90
15455;DHT22;21057;51.024;7.540;2023-08-06T15:20:52;15.00;99.90
15455;DHT22;21057;51.024;7.540;2023-08-06T15:23:19;15.30;99.90
15455;DHT22;21057;51.024;7.540;2023-08-06T15:25:46;15.30;99.90
15455;DHT22;21057;51.024;7.540;2023-08-06T15:28:13;15.40;99.90
15455;DHT22;21057;51.024;7.540;2023-08-06T15:30:41;15.40;99.90
15455;DHT22;21057;51.024;7.540;2023-08-06T15:33:14;15.20;99.90